createdAt,value
2022-10-24T00:00:47.193Z,98523.52
2022-10-24T00:02:07.417Z,98519.64
2022-10-24T00:03:09.983Z,98519.36
2022-10-24T00:04:11.706Z,98516.20
2022-10-24T00:05:14.593Z,98513.77
2022-10-24T00:06:18.310Z,98511.07
2022-10-24T00:07:20.141Z,98511.29
2022-10-24T00:08:21.830Z,98509.98
2022-10-24T00:09:23.460Z,98506.04
2022-10-24T00:10:25.567Z,98505.40
2022-10-24T00:11:28.574Z,98505.98
2022-10-24T00:12:30.306Z,98507.67
2022-10-24T00:13:31.931Z,98505.13
2022-10-24T00:14:36.713Z,98504.38
2022-10-24T00:15:40.052Z,98502.88
2022-10-24T00:16:41.909Z,98498.06
2022-10-24T00:17:43.594Z,98492.94
2022-10-24T00:18:45.601Z,98489.65
2022-10-24T00:19:47.484Z,98488.09
2022-10-24T00:20:49.172Z,98490.94
2022-10-24T00:21:51.247Z,98493.80
2022-10-24T00:22:52.926Z,98492.98
2022-10-24T00:23:54.789Z,98489.70
2022-10-24T00:24:56.473Z,98493.32
2022-10-24T00:26:01.947Z,98490.73
2022-10-24T00:27:04.865Z,98494.66
2022-10-24T00:28:06.676Z,98501.09
2022-10-24T00:29:08.593Z,98509.55
2022-10-24T00:30:10.690Z,98511.98
2022-10-24T00:31:18.743Z,98515.81
2022-10-24T00:32:20.628Z,98515.65
2022-10-24T00:33:22.574Z,98512.26
2022-10-24T00:34:24.388Z,98513.66
2022-10-24T00:35:26.205Z,98513.11
2022-10-24T00:36:28.817Z,98511.49
2022-10-24T00:37:30.654Z,98513.92
2022-10-24T00:38:32.320Z,98514.52
2022-10-24T00:39:34.106Z,98511.83
2022-10-24T00:40:35.823Z,98506.05
2022-10-24T00:41:42.764Z,98503.88
2022-10-24T00:42:44.966Z,98501.73
2022-10-24T00:43:47.966Z,98502.48
2022-10-24T00:44:53.762Z,98504.05
2022-10-24T00:46:00.911Z,98503.19
2022-10-24T00:47:08.142Z,98505.66
2022-10-24T00:48:16.398Z,98500.54
2022-10-24T00:49:22.751Z,98498.38
2022-10-24T00:50:24.667Z,98492.40
2022-10-24T00:51:33.833Z,98494.43
2022-10-24T00:52:40.958Z,98491.47
2022-10-24T00:53:47.582Z,98491.32
2022-10-24T00:54:52.881Z,98491.58
2022-10-24T00:55:59.357Z,98494.86
2022-10-24T00:57:34.206Z,98497.19
2022-10-24T00:58:39.172Z,98492.98
2022-10-24T00:59:45.197Z,98494.81
2022-10-24T01:00:47.108Z,98498.43
2022-10-24T01:01:49.318Z,98494.08
2022-10-24T01:02:51.059Z,98492.45
2022-10-24T01:03:52.858Z,98491.42
2022-10-24T01:04:55.068Z,98489.98
2022-10-24T01:06:17.209Z,98484.91
2022-10-24T01:07:33.665Z,98483.50
2022-10-24T01:08:38.162Z,98474.82
2022-10-24T01:10:22.105Z,98475.03
2022-10-24T01:11:40.308Z,98474.38
2022-10-24T01:12:58.338Z,98472.12
2022-10-24T01:14:21.062Z,98474.48
2022-10-24T01:15:42.787Z,98472.96
2022-10-24T01:17:02.424Z,98475.67
2022-10-24T01:18:16.394Z,98476.65
2022-10-24T01:19:48.996Z,98473.46
2022-10-24T01:21:13.969Z,98475.19
2022-10-24T01:22:25.099Z,98471.41
2022-10-24T01:23:57.781Z,98470.27
2022-10-24T01:25:15.110Z,98469.15
2022-10-24T01:26:34.975Z,98472.06
2022-10-24T01:27:45.649Z,98473.20
2022-10-24T01:29:19.992Z,98469.36
2022-10-24T01:30:21.996Z,98472.17
2022-10-24T01:31:40.168Z,98469.64
2022-10-24T01:32:45.368Z,98469.48
2022-10-24T01:34:00.291Z,98467.16
2022-10-24T01:35:16.500Z,98466.29
2022-10-24T01:36:31.895Z,98465.42
2022-10-24T01:37:45.591Z,98462.94
2022-10-24T01:39:00.827Z,98458.90
2022-10-24T01:40:50.877Z,98455.98
2022-10-24T01:41:57.427Z,98456.09
2022-10-24T01:43:08.196Z,98453.19
2022-10-24T01:44:23.745Z,98448.88
2022-10-24T01:45:34.708Z,98447.78
2022-10-24T01:46:43.037Z,98444.77
2022-10-24T01:47:53.536Z,98447.15
2022-10-24T01:49:08.049Z,98442.34
2022-10-24T01:50:13.940Z,98443.80
2022-10-24T01:51:22.316Z,98443.48
2022-10-24T01:52:31.424Z,98441.70
2022-10-24T01:53:36.718Z,98436.73
2022-10-24T01:54:40.045Z,98437.27
2022-10-24T01:55:44.301Z,98435.55
2022-10-24T01:56:46.035Z,98432.42
2022-10-24T01:57:47.699Z,98430.97
2022-10-24T01:58:49.455Z,98429.89
2022-10-24T01:59:51.090Z,98424.83
2022-10-24T02:01:00.256Z,98422.71
2022-10-24T02:02:09.651Z,98417.48
2022-10-24T02:03:27.408Z,98415.96
2022-10-24T02:04:33.346Z,98416.67
2022-10-24T02:05:45.077Z,98413.33
2022-10-24T02:06:49.544Z,98414.35
2022-10-24T02:07:56.365Z,98412.36
2022-10-24T02:10:22.971Z,98411.06
2022-10-24T02:11:24.720Z,98413.33
2022-10-24T02:12:28.822Z,98411.12
2022-10-24T02:13:40.601Z,98412.52
2022-10-24T02:14:51.835Z,98412.04
2022-10-24T02:15:58.520Z,98408.75
2022-10-24T02:17:01.667Z,98407.14
2022-10-24T02:18:03.830Z,98404.71
2022-10-24T02:19:06.239Z,98403.53
2022-10-24T02:20:08.993Z,98405.52
2022-10-24T02:21:35.735Z,98404.33
2022-10-24T02:23:05.963Z,98400.29
2022-10-24T02:24:14.063Z,98397.37
2022-10-24T02:25:33.577Z,98395.81
2022-10-24T02:26:56.389Z,98395.86
2022-10-24T02:28:22.344Z,98393.70
2022-10-24T02:29:40.143Z,98390.25
2022-10-24T02:30:52.112Z,98387.60
2022-10-24T02:31:58.270Z,98387.12
2022-10-24T02:33:01.727Z,98381.56
2022-10-24T02:34:08.921Z,98380.70
2022-10-24T02:35:15.437Z,98380.38
2022-10-24T02:36:23.875Z,98377.41
2022-10-24T02:37:29.061Z,98376.91
2022-10-24T02:38:36.479Z,98373.23
2022-10-24T02:39:41.068Z,98377.34
2022-10-24T02:40:46.054Z,98373.30
2022-10-24T02:41:51.277Z,98371.77
2022-10-24T02:42:58.424Z,98369.02
2022-10-24T02:44:03.523Z,98371.00
2022-10-24T02:45:08.045Z,98372.41
2022-10-24T02:46:12.356Z,98375.70
2022-10-24T02:47:17.774Z,98378.61
2022-10-24T02:48:27.306Z,98379.57
2022-10-24T02:49:29.102Z,98379.30
2022-10-24T02:50:32.667Z,98380.27
2022-10-24T02:51:40.013Z,98384.80
2022-10-24T02:52:44.670Z,98379.77
2022-10-24T02:53:46.836Z,98377.94
2022-10-24T02:54:48.499Z,98376.96
2022-10-24T02:55:50.400Z,98374.00
2022-10-24T02:57:01.468Z,98369.20
2022-10-24T02:58:03.584Z,98368.38
2022-10-24T02:59:05.397Z,98369.94
2022-10-24T03:00:08.315Z,98370.48
2022-10-24T03:01:10.592Z,98366.48
2022-10-24T03:02:12.400Z,98366.58
2022-10-24T03:03:14.485Z,98361.07
2022-10-24T03:04:16.261Z,98362.23
2022-10-24T03:05:17.999Z,98368.51
2022-10-24T03:06:19.675Z,98363.27
2022-10-24T03:07:21.543Z,98363.05
2022-10-24T03:08:23.309Z,98361.31
2022-10-24T03:09:30.176Z,98361.97
2022-10-24T03:10:31.827Z,98357.71
2022-10-24T03:11:33.865Z,98352.00
2022-10-24T03:12:35.591Z,98351.84
2022-10-24T03:13:40.914Z,98352.34
2022-10-24T03:14:45.631Z,98351.64
2022-10-24T03:17:03.987Z,98348.77
2022-10-24T03:18:12.297Z,98346.92
2022-10-24T03:19:14.947Z,98348.66
2022-10-24T03:20:17.120Z,98343.92
2022-10-24T03:21:20.986Z,98342.69
2022-10-24T03:22:24.689Z,98343.42
2022-10-24T03:23:28.905Z,98343.55
2022-10-24T03:24:43.487Z,98343.65
2022-10-24T03:25:46.138Z,98348.11
2022-10-24T03:26:47.772Z,98344.73
2022-10-24T03:27:49.422Z,98350.92
2022-10-24T03:28:51.189Z,98348.12
2022-10-24T03:29:52.824Z,98344.27
2022-10-24T03:30:56.302Z,98338.83
2022-10-24T03:31:57.952Z,98337.17
2022-10-24T03:32:59.741Z,98332.36
2022-10-24T03:34:01.556Z,98329.02
2022-10-24T03:35:03.433Z,98322.77
2022-10-24T03:36:06.669Z,98322.45
2022-10-24T03:37:08.632Z,98319.14
2022-10-24T03:38:10.533Z,98320.70
2022-10-24T03:39:12.936Z,98317.90
2022-10-24T03:40:14.680Z,98316.65
2022-10-24T03:41:16.476Z,98315.57
2022-10-24T03:42:18.181Z,98308.88
2022-10-24T03:43:20.403Z,98306.29
2022-10-24T03:44:22.162Z,98307.31
2022-10-24T03:45:23.832Z,98303.27
2022-10-24T03:46:25.676Z,98294.41
2022-10-24T03:47:27.645Z,98289.07
2022-10-24T03:48:29.298Z,98288.22
2022-10-24T03:49:32.285Z,98286.52
2022-10-24T03:50:34.122Z,98285.80
2022-10-24T03:51:36.912Z,98285.63
2022-10-24T03:52:38.587Z,98280.67
2022-10-24T03:53:40.264Z,98282.02
2022-10-24T03:54:42.040Z,98281.75
2022-10-24T03:55:43.728Z,98271.88
2022-10-24T03:56:47.900Z,98272.25
2022-10-24T03:57:49.580Z,98260.75
2022-10-24T03:58:51.345Z,98262.81
2022-10-24T03:59:53.150Z,98258.50
2022-10-24T04:00:58.071Z,98260.27
2022-10-24T04:02:01.445Z,98257.41
2022-10-24T04:03:03.528Z,98258.05
2022-10-24T04:04:05.560Z,98262.09
2022-10-24T04:05:07.865Z,98259.29
2022-10-24T04:06:09.824Z,98261.44
2022-10-24T04:07:12.331Z,98262.64
2022-10-24T04:08:14.008Z,98267.75
2022-10-24T04:09:15.661Z,98268.19
2022-10-24T04:10:17.413Z,98274.45
2022-10-24T04:11:19.195Z,98281.73
2022-10-24T04:12:21.016Z,98284.65
2022-10-24T04:13:22.715Z,98284.92
2022-10-24T04:14:24.406Z,98286.44
2022-10-24T04:15:26.406Z,98293.83
2022-10-24T04:16:28.299Z,98298.68
2022-10-24T04:17:30.108Z,98291.29
2022-10-24T04:18:31.778Z,98285.35
2022-10-24T04:19:33.910Z,98280.43
2022-10-24T04:20:36.248Z,98272.82
2022-10-24T04:21:38.226Z,98278.88
2022-10-24T04:22:39.894Z,98283.45
2022-10-24T04:23:42.651Z,98277.83
2022-10-24T04:24:44.538Z,98278.32
2022-10-24T04:25:46.761Z,98273.45
2022-10-24T04:26:48.499Z,98272.95
2022-10-24T04:27:50.134Z,98272.79
2022-10-24T04:28:51.797Z,98277.58
2022-10-24T04:29:53.639Z,98278.48
2022-10-24T04:30:58.927Z,98280.80
2022-10-24T04:32:00.720Z,98281.13
2022-10-24T04:33:02.426Z,98277.98
2022-10-24T04:34:05.683Z,98278.19
2022-10-24T04:35:08.469Z,98281.13
2022-10-24T04:36:10.223Z,98284.11
2022-10-24T04:37:11.853Z,98291.02
2022-10-24T04:38:13.489Z,98291.89
2022-10-24T04:39:15.191Z,98282.71
2022-10-24T04:40:17.009Z,98288.59
2022-10-24T04:41:18.816Z,98291.35
2022-10-24T04:42:21.596Z,98293.79
2022-10-24T04:43:24.585Z,98302.09
2022-10-24T04:44:26.328Z,98303.77
2022-10-24T04:45:27.978Z,98300.38
2022-10-24T04:46:29.870Z,98307.33
2022-10-24T04:47:31.777Z,98301.45
2022-10-24T04:48:33.722Z,98301.23
2022-10-24T04:49:35.399Z,98307.01
2022-10-24T04:50:40.289Z,98302.58
2022-10-24T04:51:42.009Z,98298.64
2022-10-24T04:52:43.691Z,98292.86
2022-10-24T04:53:45.645Z,98291.89
2022-10-24T04:54:47.310Z,98291.02
2022-10-24T04:55:49.056Z,98290.05
2022-10-24T04:56:50.747Z,98292.64
2022-10-24T04:57:52.405Z,98291.40
2022-10-24T04:58:54.097Z,98294.25
2022-10-24T04:59:55.855Z,98297.02
2022-10-24T05:00:57.552Z,98300.73
2022-10-24T05:01:59.308Z,98302.52
2022-10-24T05:03:01.087Z,98304.89
2022-10-24T05:04:03.307Z,98302.57
2022-10-24T05:05:06.093Z,98298.48
2022-10-24T05:06:07.827Z,98296.55
2022-10-24T05:07:09.683Z,98295.96
2022-10-24T05:08:11.660Z,98298.28
2022-10-24T05:09:14.432Z,98298.23
2022-10-24T05:10:17.325Z,98294.92
2022-10-24T05:11:19.094Z,98297.62
2022-10-24T05:12:20.833Z,98295.45
2022-10-24T05:13:22.559Z,98294.80
2022-10-24T05:14:24.751Z,98294.41
2022-10-24T05:15:26.563Z,98293.45
2022-10-24T05:16:28.230Z,98290.63
2022-10-24T05:17:29.992Z,98290.83
2022-10-24T05:18:32.430Z,98290.40
2022-10-24T05:19:34.118Z,98288.93
2022-10-24T05:20:35.898Z,98289.08
2022-10-24T05:21:37.632Z,98285.58
2022-10-24T05:22:40.424Z,98290.13
2022-10-24T05:23:42.357Z,98290.29
2022-10-24T05:24:44.055Z,98293.30
2022-10-24T05:25:45.920Z,98291.35
2022-10-24T05:26:47.596Z,98289.78
2022-10-24T05:27:49.309Z,98286.57
2022-10-24T05:28:52.623Z,98287.05
2022-10-24T05:29:54.800Z,98285.48
2022-10-24T05:30:56.556Z,98285.67
2022-10-24T05:31:58.272Z,98283.89
2022-10-24T05:32:59.948Z,98284.42
2022-10-24T05:34:01.707Z,98281.59
2022-10-24T05:35:04.271Z,98276.12
2022-10-24T05:36:06.782Z,98273.73
2022-10-24T05:37:08.714Z,98271.89
2022-10-24T05:38:10.548Z,98273.61
2022-10-24T05:39:12.197Z,98272.75
2022-10-24T05:40:14.185Z,98272.48
2022-10-24T05:41:15.848Z,98279.52
2022-10-24T05:42:17.843Z,98275.95
2022-10-24T05:43:20.129Z,98277.60
2022-10-24T05:44:21.896Z,98278.04
2022-10-24T05:45:23.900Z,98282.41
2022-10-24T05:46:25.844Z,98284.58
2022-10-24T05:47:29.273Z,98279.00
2022-10-24T05:48:31.170Z,98287.48
2022-10-24T05:49:34.161Z,98286.85
2022-10-24T05:50:36.540Z,98290.73
2022-10-24T05:51:38.177Z,98289.22
2022-10-24T05:52:46.125Z,98291.92
2022-10-24T05:53:49.037Z,98289.27
2022-10-24T05:54:55.861Z,98291.33
2022-10-24T05:56:08.424Z,98292.63
2022-10-24T05:57:10.125Z,98293.43
2022-10-24T05:58:11.783Z,98294.04
2022-10-24T05:59:13.726Z,98290.69
2022-10-24T06:00:16.794Z,98297.80
2022-10-24T06:01:18.502Z,98299.69
2022-10-24T06:02:21.414Z,98299.24
2022-10-24T06:03:23.793Z,98299.95
2022-10-24T06:04:25.487Z,98294.97
2022-10-24T06:05:27.466Z,98288.27
2022-10-24T06:06:29.163Z,98291.50
2022-10-24T06:07:31.583Z,98296.02
2022-10-24T06:08:37.334Z,98296.39
2022-10-24T06:09:41.666Z,98304.23
2022-10-24T06:10:50.875Z,98302.44
2022-10-24T06:11:52.545Z,98302.47
2022-10-24T06:12:54.251Z,98299.77
2022-10-24T06:13:56.043Z,98301.15
2022-10-24T06:14:59.872Z,98298.53
2022-10-24T06:16:01.607Z,98303.94
2022-10-24T06:17:05.512Z,98301.49
2022-10-24T06:18:07.237Z,98300.44
2022-10-24T06:19:09.088Z,98304.42
2022-10-24T06:20:11.449Z,98303.34
2022-10-24T06:21:13.727Z,98310.73
2022-10-24T06:22:15.460Z,98306.81
2022-10-24T06:23:17.196Z,98307.83
2022-10-24T06:24:18.907Z,98310.94
2022-10-24T06:25:20.661Z,98310.77
2022-10-24T06:26:24.047Z,98312.69
2022-10-24T06:27:26.170Z,98310.09
2022-10-24T06:28:28.425Z,98311.27
2022-10-24T06:29:30.274Z,98316.28
2022-10-24T06:30:31.948Z,98318.38
2022-10-24T06:31:35.657Z,98322.09
2022-10-24T06:32:39.621Z,98318.66
2022-10-24T06:33:43.957Z,98320.90
2022-10-24T06:34:46.027Z,98317.00
2022-10-24T06:35:48.205Z,98311.14
2022-10-24T06:36:49.915Z,98307.96
2022-10-24T06:37:51.748Z,98308.20
2022-10-24T06:38:57.616Z,98313.75
2022-10-24T06:39:59.558Z,98311.36
2022-10-24T06:41:10.044Z,98315.99
2022-10-24T06:42:11.685Z,98318.69
2022-10-24T06:43:13.394Z,98320.95
2022-10-24T06:44:15.708Z,98320.17
2022-10-24T06:45:18.839Z,98316.60
2022-10-24T06:46:23.402Z,98316.98
2022-10-24T06:47:25.154Z,98310.80
2022-10-24T06:48:26.848Z,98312.61
2022-10-24T06:49:28.500Z,98309.69
2022-10-24T06:50:30.213Z,98310.90
2022-10-24T06:51:31.911Z,98311.38
2022-10-24T06:52:33.786Z,98310.81
2022-10-24T06:53:36.041Z,98318.47
2022-10-24T06:54:39.094Z,98320.46
2022-10-24T06:55:40.780Z,98315.98
2022-10-24T06:56:42.613Z,98316.35
2022-10-24T06:57:44.558Z,98318.33
2022-10-24T06:58:47.073Z,98316.38
2022-10-24T06:59:48.950Z,98317.98
2022-10-24T07:00:51.082Z,98312.41
2022-10-24T07:01:53.113Z,98315.36
2022-10-24T07:02:54.920Z,98316.23
2022-10-24T07:03:56.585Z,98312.44
2022-10-24T07:04:58.605Z,98309.53
2022-10-24T07:06:06.459Z,98312.90
2022-10-24T07:07:14.474Z,98323.48
2022-10-24T07:08:16.157Z,98320.81
2022-10-24T07:09:17.825Z,98324.77
2022-10-24T07:10:19.662Z,98327.84
2022-10-24T07:11:22.165Z,98325.11
2022-10-24T07:12:25.623Z,98324.42
2022-10-24T07:13:27.370Z,98333.27
2022-10-24T07:14:29.088Z,98336.08
2022-10-24T07:15:30.748Z,98333.46
2022-10-24T07:16:33.141Z,98336.73
2022-10-24T07:17:43.054Z,98334.84
2022-10-24T07:18:45.735Z,98328.79
2022-10-24T07:19:53.941Z,98325.84
2022-10-24T07:21:00.711Z,98329.65
2022-10-24T07:22:02.543Z,98328.47
2022-10-24T07:23:04.244Z,98330.59
2022-10-24T07:24:06.512Z,98330.46
2022-10-24T07:25:09.089Z,98331.79
2022-10-24T07:26:14.914Z,98335.42
2022-10-24T07:27:17.527Z,98339.67
2022-10-24T07:28:19.145Z,98346.80
2022-10-24T07:29:20.814Z,98349.55
2022-10-24T07:30:22.639Z,98350.52
2022-10-24T07:31:27.491Z,98348.92
2022-10-24T07:32:29.320Z,98347.30
2022-10-24T07:33:31.413Z,98347.08
2022-10-24T07:34:33.061Z,98343.57
2022-10-24T07:35:34.720Z,98342.24
2022-10-24T07:36:40.149Z,98338.64
2022-10-24T07:37:45.607Z,98336.72
2022-10-24T07:38:49.856Z,98338.42
2022-10-24T07:39:51.537Z,98334.88
2022-10-24T07:40:53.367Z,98338.05
2022-10-24T07:41:55.012Z,98344.69
2022-10-24T07:42:56.809Z,98340.54
2022-10-24T07:43:59.794Z,98341.34
2022-10-24T07:45:02.771Z,98349.11
2022-10-24T07:46:17.768Z,98349.96
2022-10-24T07:47:19.515Z,98351.89
2022-10-24T07:48:21.250Z,98349.05
2022-10-24T07:49:23.521Z,98346.09
2022-10-24T07:50:25.226Z,98346.21
2022-10-24T07:51:28.519Z,98342.30
2022-10-24T07:52:30.186Z,98343.94
2022-10-24T07:53:31.785Z,98338.48
2022-10-24T07:54:36.393Z,98337.73
2022-10-24T07:55:40.926Z,98333.29
2022-10-24T07:56:42.589Z,98337.06
2022-10-24T07:57:44.486Z,98332.60
2022-10-24T07:58:47.950Z,98333.56
2022-10-24T07:59:49.660Z,98337.55
2022-10-24T08:00:51.506Z,98339.52
2022-10-24T08:01:53.122Z,98338.63
2022-10-24T08:02:54.788Z,98337.67
2022-10-24T08:03:57.450Z,98337.37
2022-10-24T08:04:59.119Z,98335.23
2022-10-24T08:06:04.233Z,98336.06
2022-10-24T08:07:12.948Z,98331.05
2022-10-24T08:09:45.409Z,98333.77
2022-10-24T08:10:47.050Z,98332.61
2022-10-24T08:11:48.740Z,98329.49
2022-10-24T08:12:50.449Z,98329.88
2022-10-24T08:13:54.128Z,98328.23
2022-10-24T08:14:56.025Z,98330.08
2022-10-24T08:15:57.833Z,98332.14
2022-10-24T08:16:59.551Z,98323.79
2022-10-24T08:18:01.189Z,98326.65
2022-10-24T08:19:02.877Z,98326.02
2022-10-24T08:20:07.139Z,98312.42
2022-10-24T08:21:12.874Z,98317.16
2022-10-24T08:22:14.741Z,98313.84
2022-10-24T08:23:16.377Z,98313.73
2022-10-24T08:24:18.033Z,98316.63
2022-10-24T08:25:19.746Z,98316.02
2022-10-24T08:26:24.181Z,98314.02
2022-10-24T08:27:26.137Z,98312.21
2022-10-24T08:28:27.748Z,98312.91
2022-10-24T08:29:29.390Z,98308.91
2022-10-24T08:30:31.464Z,98306.96
2022-10-24T08:31:35.497Z,98304.96
2022-10-24T08:32:38.208Z,98302.54
2022-10-24T08:33:40.290Z,98304.38
2022-10-24T08:34:42.055Z,98300.33
2022-10-24T08:35:43.947Z,98302.69
2022-10-24T08:36:46.990Z,98303.29
2022-10-24T08:37:48.748Z,98302.35
2022-10-24T08:38:50.686Z,98304.24
2022-10-24T08:39:55.743Z,98302.51
2022-10-24T08:40:58.420Z,98306.84
2022-10-24T08:42:07.484Z,98312.30
2022-10-24T08:43:11.915Z,98320.02
2022-10-24T08:44:14.349Z,98318.24
2022-10-24T08:45:42.813Z,98325.71
2022-10-24T08:46:55.251Z,98322.23
2022-10-24T08:48:09.080Z,98315.33
2022-10-24T08:49:28.417Z,98313.95
2022-10-24T08:50:35.943Z,98311.15
2022-10-24T08:51:51.519Z,98305.95
2022-10-24T08:53:07.462Z,98304.12
2022-10-24T08:54:23.247Z,98302.67
2022-10-24T08:55:49.630Z,98303.50
2022-10-24T08:56:57.919Z,98311.65
2022-10-24T08:58:01.950Z,98311.20
2022-10-24T08:59:05.400Z,98314.23
2022-10-24T09:00:26.956Z,98314.96
2022-10-24T09:02:00.612Z,98305.58
2022-10-24T09:05:02.078Z,98317.29
2022-10-24T09:06:27.478Z,98320.62
2022-10-24T09:07:29.315Z,98323.11
2022-10-24T09:08:43.543Z,98327.54
2022-10-24T09:09:51.037Z,98330.27
2022-10-24T09:11:03.855Z,98337.41
2022-10-24T09:12:13.857Z,98334.86
2022-10-24T09:13:17.507Z,98327.90
2022-10-24T09:14:23.161Z,98328.07
2022-10-24T09:15:29.068Z,98330.52
2022-10-24T09:16:30.904Z,98331.33
2022-10-24T09:17:37.132Z,98330.03
2022-10-24T09:18:42.943Z,98327.75
2022-10-24T09:19:54.584Z,98331.42
2022-10-24T09:20:56.931Z,98331.46
2022-10-24T09:22:01.260Z,98332.23
2022-10-24T09:23:06.282Z,98333.52
2022-10-24T09:24:27.798Z,98332.66
2022-10-24T09:25:35.392Z,98333.12
2022-10-24T09:26:39.282Z,98334.10
2022-10-24T09:27:42.157Z,98335.98
2022-10-24T09:28:45.353Z,98335.73
2022-10-24T09:29:47.239Z,98333.25
2022-10-24T09:30:50.679Z,98333.63
2022-10-24T09:31:52.337Z,98336.36
2022-10-24T09:33:02.178Z,98330.77
2022-10-24T09:34:04.230Z,98331.78
2022-10-24T09:35:15.944Z,98331.64
2022-10-24T09:36:21.924Z,98328.51
2022-10-24T09:37:42.761Z,98325.69
2022-10-24T09:38:46.858Z,98324.40
2022-10-24T09:40:25.027Z,98324.42
2022-10-24T09:41:30.113Z,98323.25
2022-10-24T09:42:31.990Z,98320.82
2022-10-24T09:43:50.893Z,98316.41
2022-10-24T09:44:52.521Z,98318.27
2022-10-24T09:46:26.605Z,98317.11
2022-10-24T09:47:29.805Z,98316.33
2022-10-24T09:48:44.961Z,98315.83
2022-10-24T09:49:47.034Z,98311.58
2022-10-24T09:50:51.717Z,98318.84
2022-10-24T09:52:21.831Z,98317.39
2022-10-24T09:53:38.514Z,98320.00
2022-10-24T09:54:40.120Z,98317.61
2022-10-24T09:55:46.723Z,98323.45
2022-10-24T09:57:16.675Z,98318.80
2022-10-24T09:58:22.191Z,98321.74
2022-10-24T09:59:32.588Z,98317.50
2022-10-24T10:00:36.617Z,98315.16
2022-10-24T10:01:38.737Z,98312.64
2022-10-24T10:03:23.977Z,98312.91
2022-10-24T10:04:26.029Z,98315.64
2022-10-24T10:05:42.448Z,98313.32
2022-10-24T10:06:47.467Z,98317.23
2022-10-24T10:07:50.961Z,98321.91
2022-10-24T10:08:57.929Z,98321.27
2022-10-24T10:10:25.310Z,98313.48
2022-10-24T10:11:35.312Z,98312.98
2022-10-24T10:12:42.454Z,98314.55
2022-10-24T10:13:50.349Z,98316.89
2022-10-24T10:14:52.605Z,98318.17
2022-10-24T10:16:00.808Z,98317.36
2022-10-24T10:17:06.645Z,98320.77
2022-10-24T10:18:20.391Z,98319.98
2022-10-24T10:19:22.190Z,98324.58
2022-10-24T10:20:43.533Z,98326.13
2022-10-24T10:21:59.665Z,98327.46
2022-10-24T10:23:31.679Z,98329.95
2022-10-24T10:24:40.444Z,98330.48
2022-10-24T10:25:42.214Z,98336.04
2022-10-24T10:26:45.829Z,98336.67
2022-10-24T10:27:51.087Z,98334.79
2022-10-24T10:29:25.030Z,98337.35
2022-10-24T10:30:26.913Z,98337.60
2022-10-24T10:31:44.076Z,98340.73
2022-10-24T10:34:52.033Z,98349.30
2022-10-24T10:36:08.107Z,98348.30
2022-10-24T10:37:28.428Z,98348.33
2022-10-24T10:38:51.027Z,98345.06
2022-10-24T10:40:31.498Z,98343.58
2022-10-24T10:41:58.501Z,98349.55
2022-10-24T10:43:33.393Z,98343.22
2022-10-24T10:45:14.390Z,98347.41
2022-10-24T10:46:29.628Z,98341.64
2022-10-24T10:48:07.347Z,98342.00
2022-10-24T10:49:31.000Z,98335.14
2022-10-24T10:50:43.754Z,98332.84
2022-10-24T10:51:58.921Z,98332.61
2022-10-24T10:53:30.167Z,98333.33
2022-10-24T10:55:29.209Z,98337.56
2022-10-24T10:57:00.309Z,98338.05
2022-10-24T10:58:18.526Z,98334.80
2022-10-24T10:59:51.188Z,98332.45
2022-10-24T11:01:16.990Z,98330.06
2022-10-24T11:02:21.814Z,98325.92
2022-10-24T11:03:42.574Z,98325.66
2022-10-24T11:05:16.491Z,98322.89
2022-10-24T11:06:37.316Z,98325.61
2022-10-24T11:08:02.592Z,98328.28
2022-10-24T11:09:13.042Z,98326.42
2022-10-24T11:10:23.187Z,98330.75
2022-10-24T11:11:31.187Z,98333.78
2022-10-24T11:12:41.157Z,98329.29
2022-10-24T11:14:07.536Z,98332.88
2022-10-24T11:15:26.393Z,98331.02
2022-10-24T11:16:30.666Z,98330.54
2022-10-24T11:17:47.972Z,98330.45
2022-10-24T11:18:53.540Z,98330.73
2022-10-24T11:20:14.740Z,98333.33
2022-10-24T11:21:21.355Z,98327.13
2022-10-24T11:22:32.365Z,98325.33
2022-10-24T11:23:37.863Z,98325.05
2022-10-24T11:24:50.884Z,98327.10
2022-10-24T11:26:02.695Z,98322.95
2022-10-24T11:27:15.990Z,98320.11
2022-10-24T11:28:31.442Z,98322.83
2022-10-24T11:29:57.829Z,98317.50
2022-10-24T11:31:13.633Z,98317.02
2022-10-24T11:32:23.967Z,98313.91
2022-10-24T11:33:33.866Z,98314.02
2022-10-24T11:34:51.423Z,98311.23
2022-10-24T11:36:06.323Z,98312.23
2022-10-24T11:37:18.768Z,98308.27
2022-10-24T11:38:24.812Z,98311.92
2022-10-24T11:39:29.925Z,98307.64
2022-10-24T11:40:33.747Z,98309.88
2022-10-24T11:41:48.269Z,98312.48
2022-10-24T11:43:02.250Z,98309.38
2022-10-24T11:44:26.415Z,98310.77
2022-10-24T11:45:39.208Z,98305.96
2022-10-24T11:46:48.718Z,98302.03
2022-10-24T11:48:13.334Z,98300.46
2022-10-24T11:49:33.366Z,98301.91
2022-10-24T11:50:48.090Z,98300.77
2022-10-24T11:52:05.961Z,98299.81
2022-10-24T11:53:29.412Z,98301.30
2022-10-24T11:54:42.807Z,98302.23
2022-10-24T11:55:54.402Z,98297.91
2022-10-24T11:57:04.499Z,98290.33
2022-10-24T11:58:14.239Z,98287.17
2022-10-24T11:59:24.370Z,98291.90
2022-10-24T12:00:53.501Z,98287.37
2022-10-24T12:01:55.018Z,98280.53
2022-10-24T12:03:44.432Z,98281.70
2022-10-24T12:04:57.873Z,98283.44
2022-10-24T12:06:33.372Z,98282.51
2022-10-24T12:08:06.519Z,98282.73
2022-10-24T12:09:52.432Z,98282.13
2022-10-24T12:11:19.058Z,98278.95
2022-10-24T12:12:51.233Z,98274.25
2022-10-24T12:14:28.175Z,98278.35
2022-10-24T12:15:45.931Z,98278.62
2022-10-24T12:17:16.960Z,98281.62
2022-10-24T12:18:39.386Z,98278.59
2022-10-24T12:19:44.852Z,98281.73
2022-10-24T12:20:53.274Z,98279.98
2022-10-24T12:22:01.508Z,98279.67
2022-10-24T12:23:04.285Z,98273.43
2022-10-24T12:24:30.256Z,98275.27
2022-10-24T12:25:36.250Z,98273.36
2022-10-24T12:26:38.009Z,98276.84
2022-10-24T12:27:42.753Z,98279.11
2022-10-24T12:28:56.014Z,98277.89
2022-10-24T12:30:04.901Z,98277.40
2022-10-24T12:31:14.114Z,98277.58
2022-10-24T12:32:25.958Z,98277.27
2022-10-24T12:33:27.818Z,98274.83
2022-10-24T12:34:46.137Z,98271.95
2022-10-24T12:35:54.534Z,98268.01
2022-10-24T12:37:26.668Z,98257.70
2022-10-24T12:38:28.200Z,98257.47
2022-10-24T12:39:37.220Z,98256.60
2022-10-24T12:40:44.965Z,98252.29
2022-10-24T12:41:47.450Z,98254.82
2022-10-24T12:42:52.057Z,98255.85
2022-10-24T12:44:31.433Z,98254.56
2022-10-24T12:45:33.608Z,98256.64
2022-10-24T12:46:38.041Z,98256.80
2022-10-24T12:47:39.946Z,98258.73
2022-10-24T12:48:44.078Z,98258.38
2022-10-24T12:49:48.751Z,98260.18
2022-10-24T12:51:34.766Z,98259.77
2022-10-24T12:52:36.275Z,98259.19
2022-10-24T12:54:02.577Z,98259.98
2022-10-24T12:55:24.203Z,98253.56
2022-10-24T12:56:26.370Z,98256.23
2022-10-24T12:57:37.731Z,98255.33
2022-10-24T12:58:42.871Z,98257.06
2022-10-24T12:59:48.944Z,98256.42
2022-10-24T13:01:09.458Z,98255.95
2022-10-24T13:02:11.091Z,98257.04
2022-10-24T13:03:50.693Z,98252.69
2022-10-24T13:05:16.472Z,98252.87
2022-10-24T13:06:31.937Z,98253.71
2022-10-24T13:08:01.440Z,98252.02
2022-10-24T13:09:34.045Z,98248.85
2022-10-24T13:10:47.138Z,98251.41
2022-10-24T13:12:09.185Z,98251.39
2022-10-24T13:13:36.408Z,98253.23
2022-10-24T13:15:02.187Z,98253.21
2022-10-24T13:16:16.183Z,98259.74
2022-10-24T13:17:48.941Z,98261.89
2022-10-24T13:19:11.990Z,98256.97
2022-10-24T13:20:22.260Z,98254.11
2022-10-24T13:21:32.314Z,98254.22
2022-10-24T13:22:37.251Z,98254.84
2022-10-24T13:23:39.246Z,98255.33